Time;durP1;ratioP1;P1;durP2;ratioP2;P2;SDS_P1;SDS_P2;PMS_P1;PMS_P2;Temp;Humidity;BMP_temperature;BMP_pressure;BME280_temperature;BME280_humidity;BME280_pressure;Samples;Min_cycle;Max_cycle;Signal;HPM_P1;HPM_P2
2022/03/30 00:00:13;;;;;;;39.20;27.63;;;13.40;69.00;;;;;;5035770;28;20470;-70
2022/03/30 00:02:41;;;;;;;39.60;28.23;;;13.40;69.00;;;;;;5040475;28;21209;-70
2022/03/30 00:05:10;;;;;;;40.63;28.17;;;13.40;69.10;;;;;;5034877;28;20544;-69
2022/03/30 00:07:38;;;;;;;38.00;26.67;;;13.30;69.10;;;;;;5040880;28;20460;-69
2022/03/30 00:10:07;;;;;;;41.53;26.40;;;13.30;69.00;;;;;;5040686;28;20468;-69
2022/03/30 00:12:35;;;;;;;40.40;26.93;;;13.30;69.10;;;;;;5037522;28;20459;-70
2022/03/30 00:15:04;;;;;;;35.30;25.40;;;13.30;69.10;;;;;;5038136;28;20459;-69
2022/03/30 00:17:33;;;;;;;36.30;26.47;;;13.30;69.20;;;;;;5032335;28;20494;-69
2022/03/30 00:20:02;;;;;;;43.47;28.00;;;13.30;69.20;;;;;;5038351;28;20467;-69
2022/03/30 00:22:30;;;;;;;38.23;26.20;;;13.30;69.30;;;;;;5040283;28;20452;-70
2022/03/30 00:24:58;;;;;;;35.80;25.50;;;13.30;69.30;;;;;;5033425;28;20502;-69
2022/03/30 00:27:26;;;;;;;32.80;24.60;;;13.20;69.30;;;;;;5038052;28;20538;-69
2022/03/30 00:29:55;;;;;;;30.73;23.27;;;13.20;69.30;;;;;;5038464;28;20910;-70
2022/03/30 00:32:22;;;;;;;41.03;25.80;;;13.10;69.40;;;;;;5036300;28;20490;-70
2022/03/30 00:34:52;;;;;;;35.67;24.10;;;13.10;69.50;;;;;;5035529;28;20452;-69
2022/03/30 00:37:20;;;;;;;36.93;25.10;;;13.10;69.60;;;;;;5033029;28;20470;-68
2022/03/30 00:39:47;;;;;;;33.23;22.80;;;13.10;69.60;;;;;;5037772;28;20455;-70
2022/03/30 00:42:16;;;;;;;37.80;26.20;;;13.10;69.70;;;;;;5036267;28;20484;-69
2022/03/30 00:44:44;;;;;;;48.83;31.43;;;13.10;69.70;;;;;;5036617;28;21160;-69
2022/03/30 00:47:14;;;;;;;38.73;27.30;;;13.10;69.60;;;;;;5035539;28;20583;-70
2022/03/30 00:49:42;;;;;;;37.00;25.83;;;13.10;69.60;;;;;;5038544;28;20470;-68
2022/03/30 00:52:13;;;;;;;46.13;30.67;;;13.10;69.70;;;;;;5037366;28;20478;-69
2022/03/30 00:54:42;;;;;;;42.70;28.00;;;13.00;69.70;;;;;;5037456;28;20985;-69
2022/03/30 00:57:12;;;;;;;52.33;30.47;;;13.00;69.80;;;;;;5036365;28;20475;-69
2022/03/30 00:59:41;;;;;;;49.90;33.03;;;13.00;69.80;;;;;;5043641;28;20455;-70
2022/03/30 01:02:09;;;;;;;51.97;31.37;;;13.00;69.90;;;;;;5039302;28;20859;-69
2022/03/30 01:04:38;;;;;;;44.47;28.50;;;13.00;69.90;;;;;;5037125;28;20461;-70
2022/03/30 01:07:06;;;;;;;44.37;27.57;;;13.00;69.90;;;;;;5037721;28;20501;-69
2022/03/30 01:09:36;;;;;;;38.47;26.87;;;13.00;70.00;;;;;;5039559;28;20462;-70
2022/03/30 01:12:05;;;;;;;95.87;47.60;;;13.00;70.00;;;;;;5039920;28;20462;-68
2022/03/30 01:14:33;;;;;;;121.93;56.60;;;13.00;69.90;;;;;;5037557;28;20466;-68
2022/03/30 01:17:01;;;;;;;119.13;55.50;;;13.00;69.90;;;;;;5038771;28;20486;-70
2022/03/30 01:19:30;;;;;;;63.73;36.87;;;13.00;69.90;;;;;;5036322;28;20939;-68
2022/03/30 01:22:00;;;;;;;45.53;29.53;;;12.90;70.00;;;;;;5035479;28;20861;-71
2022/03/30 01:24:28;;;;;;;41.07;26.30;;;12.90;70.10;;;;;;5035986;28;20498;-69
2022/03/30 01:26:56;;;;;;;41.50;24.70;;;12.90;70.10;;;;;;5017994;28;20480;-69
2022/03/30 01:32:26;;;;;;;40.37;26.73;;;12.90;70.20;;;;;;5037118;28;20494;-70
2022/03/30 01:34:55;;;;;;;61.53;35.57;;;12.90;70.20;;;;;;5036675;28;20822;-70
2022/03/30 01:37:26;;;;;;;51.60;29.30;;;12.80;70.20;;;;;;5036709;28;20470;-70
2022/03/30 01:39:56;;;;;;;47.20;28.43;;;12.80;70.30;;;;;;5038427;28;21477;-69
2022/03/30 01:42:24;;;;;;;42.30;27.40;;;12.80;70.30;;;;;;5036963;28;20503;-70
2022/03/30 01:44:54;;;;;;;41.67;26.80;;;12.80;70.30;;;;;;5034363;28;20971;-69
2022/03/30 01:47:22;;;;;;;38.37;27.10;;;12.80;70.30;;;;;;5035036;28;21611;-69
2022/03/30 01:49:50;;;;;;;61.60;38.10;;;12.80;70.40;;;;;;5037719;28;20466;-69
2022/03/30 01:52:18;;;;;;;48.63;31.80;;;12.80;70.40;;;;;;5034765;28;21275;-69
2022/03/30 01:54:47;;;;;;;52.30;30.20;;;12.80;70.50;;;;;;5039655;28;20464;-69
2022/03/30 01:57:16;;;;;;;53.63;32.57;;;12.90;70.40;;;;;;5038520;28;20533;-69
2022/03/30 01:59:45;;;;;;;65.13;35.57;;;12.80;70.40;;;;;;5037029;28;20965;-69
2022/03/30 02:02:13;;;;;;;60.33;33.60;;;12.80;70.40;;;;;;5031530;28;20483;-69
2022/03/30 02:04:41;;;;;;;54.13;31.33;;;12.70;70.30;;;;;;5034916;28;20457;-69
2022/03/30 02:07:10;;;;;;;37.23;26.20;;;12.70;70.40;;;;;;5032118;28;20485;-69
2022/03/30 02:09:38;;;;;;;49.83;32.67;;;12.70;70.50;;;;;;5037626;28;20474;-69
2022/03/30 02:12:09;;;;;;;39.60;27.97;;;12.60;70.40;;;;;;5039996;28;20481;-69
2022/03/30 02:14:37;;;;;;;41.87;27.70;;;12.60;70.60;;;;;;5036836;28;20546;-69
2022/03/30 02:17:05;;;;;;;44.00;26.37;;;12.50;70.70;;;;;;5038574;28;20485;-69
2022/03/30 02:19:33;;;;;;;36.93;25.40;;;12.50;70.80;;;;;;5038360;28;20474;-70
2022/03/30 02:22:01;;;;;;;37.80;23.90;;;12.50;70.80;;;;;;5036442;28;20480;-69
2022/03/30 02:24:29;;;;;;;37.00;25.20;;;12.60;70.90;;;;;;5033316;28;20459;-69
2022/03/30 02:26:57;;;;;;;31.33;22.43;;;12.60;70.90;;;;;;5034550;28;20475;-69
2022/03/30 02:29:27;;;;;;;35.60;24.50;;;12.70;70.90;;;;;;5036260;28;20826;-69
2022/03/30 02:31:55;;;;;;;34.33;23.77;;;12.70;70.90;;;;;;5034136;28;20498;-69
2022/03/30 02:34:23;;;;;;;34.90;23.93;;;12.70;70.90;;;;;;5034386;28;20554;-69
2022/03/30 02:36:51;;;;;;;35.40;24.17;;;12.70;70.90;;;;;;5033843;28;20486;-69
2022/03/30 02:39:19;;;;;;;39.47;25.53;;;12.70;70.90;;;;;;5031563;28;20549;-69
2022/03/30 02:41:47;;;;;;;32.20;23.43;;;12.70;70.80;;;;;;5034533;28;20470;-69
2022/03/30 02:44:15;;;;;;;32.60;23.40;;;12.70;70.80;;;;;;5036163;28;20956;-70
2022/03/30 02:46:44;;;;;;;34.40;24.07;;;12.60;70.90;;;;;;5036743;28;20471;-69
2022/03/30 02:49:12;;;;;;;38.20;24.30;;;12.60;71.00;;;;;;5033870;28;20463;-69
2022/03/30 02:51:40;;;;;;;36.17;25.07;;;12.60;71.00;;;;;;5038682;28;20949;-69
2022/03/30 02:54:08;;;;;;;30.67;21.60;;;12.60;71.00;;;;;;5036679;28;20455;-69
2022/03/30 02:56:36;;;;;;;27.13;19.70;;;12.60;71.00;;;;;;5024082;28;20487;-69
2022/03/30 02:59:04;;;;;;;30.37;19.27;;;12.60;70.90;;;;;;5032836;28;20956;-69
2022/03/30 03:01:33;;;;;;;28.90;20.33;;;12.60;70.90;;;;;;5032710;28;20522;-69
2022/03/30 03:04:02;;;;;;;30.23;21.10;;;12.50;70.90;;;;;;5035075;28;20478;-70
2022/03/30 03:06:32;;;;;;;32.03;20.77;;;12.50;70.90;;;;;;5031577;28;20613;-69
2022/03/30 03:09:00;;;;;;;32.43;20.43;;;12.50;70.90;;;;;;5031898;28;20549;-68
2022/03/30 03:11:28;;;;;;;33.27;21.03;;;12.50;70.90;;;;;;5035114;28;20470;-70
2022/03/30 03:13:56;;;;;;;31.43;19.47;;;12.60;70.90;;;;;;5033140;28;20452;-70
2022/03/30 03:16:24;;;;;;;30.77;20.10;;;12.50;70.80;;;;;;5031836;28;20488;-70
2022/03/30 03:18:52;;;;;;;31.00;21.67;;;12.50;70.80;;;;;;5028459;28;20547;-70
2022/03/30 03:21:22;;;;;;;29.30;19.60;;;12.50;70.80;;;;;;5029463;28;20459;-68
2022/03/30 03:23:51;;;;;;;29.37;19.77;;;12.50;70.80;;;;;;5031030;28;20482;-69
2022/03/30 03:26:19;;;;;;;34.43;20.30;;;12.50;70.80;;;;;;5031018;28;20490;-70
2022/03/30 03:28:47;;;;;;;29.33;20.03;;;12.50;70.90;;;;;;5032814;28;20456;-69
2022/03/30 03:31:15;;;;;;;31.00;19.23;;;12.50;70.90;;;;;;5034700;28;20478;-70
2022/03/30 03:33:43;;;;;;;31.40;20.77;;;12.50;70.90;;;;;;5034363;28;20444;-69
2022/03/30 03:36:11;;;;;;;26.10;17.73;;;12.50;70.90;;;;;;5031060;28;20884;-70
2022/03/30 03:38:40;;;;;;;28.77;20.30;;;12.60;70.90;;;;;;5031950;28;21029;-70
2022/03/30 03:41:08;;;;;;;27.10;18.77;;;12.50;70.90;;;;;;5037120;28;20459;-70
2022/03/30 03:43:37;;;;;;;27.30;19.47;;;12.50;70.90;;;;;;5035921;28;20476;-70
2022/03/30 03:46:06;;;;;;;31.23;20.20;;;12.50;70.90;;;;;;5035357;28;20478;-70
2022/03/30 03:48:34;;;;;;;27.10;19.73;;;12.50;70.90;;;;;;5030290;28;20467;-70
2022/03/30 03:51:02;;;;;;;33.93;21.97;;;12.50;70.90;;;;;;5033723;28;20467;-69
2022/03/30 03:53:30;;;;;;;27.03;18.70;;;12.50;71.00;;;;;;5035870;28;20987;-69
2022/03/30 03:55:59;;;;;;;39.00;21.40;;;12.40;71.10;;;;;;5040935;28;20486;-70
2022/03/30 03:58:27;;;;;;;27.47;19.97;;;12.40;71.10;;;;;;5040675;28;20454;-70
2022/03/30 04:00:55;;;;;;;25.03;17.80;;;12.40;71.10;;;;;;5035450;28;20479;-70
2022/03/30 04:03:23;;;;;;;22.80;17.13;;;12.30;71.10;;;;;;5039384;28;20489;-70
2022/03/30 04:05:51;;;;;;;29.63;17.80;;;12.30;71.20;;;;;;5039002;28;20573;-69
2022/03/30 04:08:20;;;;;;;26.50;17.93;;;12.30;71.20;;;;;;5036640;28;21003;-69
2022/03/30 04:10:48;;;;;;;26.90;18.43;;;12.20;71.40;;;;;;5043546;28;20546;-69
2022/03/30 04:13:17;;;;;;;26.43;16.90;;;12.20;71.40;;;;;;5039600;28;20455;-69
2022/03/30 04:15:45;;;;;;;26.43;18.33;;;12.30;71.50;;;;;;5038420;28;20577;-69
2022/03/30 04:18:13;;;;;;;25.50;16.83;;;12.30;71.50;;;;;;5039163;28;20459;-69
2022/03/30 04:20:43;;;;;;;26.10;17.40;;;12.30;71.50;;;;;;5034089;28;21052;-69
2022/03/30 04:23:11;;;;;;;28.70;16.30;;;12.30;71.50;;;;;;5034844;28;20563;-70
2022/03/30 04:25:40;;;;;;;26.53;15.70;;;12.20;71.50;;;;;;5037295;28;20552;-70
2022/03/30 04:28:08;;;;;;;24.70;16.60;;;12.20;71.50;;;;;;5035471;28;20478;-69
2022/03/30 04:30:37;;;;;;;25.10;17.40;;;12.20;71.60;;;;;;5037715;28;21342;-70
2022/03/30 04:33:05;;;;;;;25.50;16.07;;;12.20;71.60;;;;;;5038340;28;20448;-70
2022/03/30 04:35:34;;;;;;;23.47;14.63;;;12.20;71.60;;;;;;5039742;28;20490;-70
2022/03/30 04:38:02;;;;;;;21.73;15.27;;;12.20;71.50;;;;;;5039014;28;20463;-69
2022/03/30 04:40:30;;;;;;;24.13;13.97;;;12.20;71.50;;;;;;5040297;28;20465;-69
2022/03/30 04:42:58;;;;;;;22.33;15.00;;;12.20;71.60;;;;;;5037109;28;20487;-69
2022/03/30 04:45:27;;;;;;;31.13;17.30;;;12.20;71.60;;;;;;5035385;28;20478;-69
2022/03/30 04:47:57;;;;;;;26.90;15.93;;;12.20;71.70;;;;;;5034211;28;21160;-70
2022/03/30 04:50:26;;;;;;;26.77;17.50;;;12.20;71.70;;;;;;5032251;28;20473;-69
2022/03/30 04:52:54;;;;;;;24.63;16.90;;;12.20;71.90;;;;;;5034596;28;20451;-70
2022/03/30 04:55:22;;;;;;;26.57;16.13;;;12.10;71.90;;;;;;5038110;28;20467;-70
2022/03/30 04:57:50;;;;;;;23.63;16.30;;;12.10;72.00;;;;;;5034428;28;20451;-70
2022/03/30 05:00:18;;;;;;;21.60;14.93;;;12.00;72.00;;;;;;5036182;28;20466;-70
2022/03/30 05:02:46;;;;;;;23.57;16.07;;;12.00;72.20;;;;;;5034991;28;20479;-70
2022/03/30 05:05:15;;;;;;;26.17;16.20;;;11.90;72.30;;;;;;5033315;28;20468;-69
2022/03/30 05:07:43;;;;;;;24.10;15.90;;;11.90;72.40;;;;;;5039343;28;20462;-70
2022/03/30 05:10:13;;;;;;;22.80;15.80;;;11.90;72.50;;;;;;5034706;28;20461;-69
2022/03/30 05:12:42;;;;;;;27.10;17.40;;;11.80;72.70;;;;;;5038251;28;20537;-70
2022/03/30 05:15:11;;;;;;;22.97;16.00;;;11.80;72.70;;;;;;5035537;28;20460;-69
2022/03/30 05:17:40;;;;;;;25.20;16.87;;;11.80;72.80;;;;;;5036257;28;20446;-69
2022/03/30 05:20:10;;;;;;;26.43;17.60;;;11.70;72.80;;;;;;5038704;28;20452;-70
2022/03/30 05:22:40;;;;;;;29.63;18.10;;;11.70;72.90;;;;;;5033407;28;20478;-71
2022/03/30 05:25:09;;;;;;;44.93;31.50;;;11.70;73.10;;;;;;5033298;28;20459;-71
2022/03/30 05:27:39;;;;;;;32.40;20.90;;;11.60;73.10;;;;;;5035940;28;20458;-69
2022/03/30 05:30:08;;;;;;;24.83;17.47;;;11.50;73.00;;;;;;5037533;28;21000;-69
2022/03/30 05:32:36;;;;;;;32.20;18.30;;;11.50;73.00;;;;;;5041351;28;20443;-70
2022/03/30 05:35:05;;;;;;;32.03;20.50;;;11.40;73.00;;;;;;5031929;28;20470;-69
2022/03/30 05:37:33;;;;;;;27.90;18.50;;;11.30;73.00;;;;;;5034508;28;20450;-70
2022/03/30 05:40:04;;;;;;;24.63;16.00;;;11.20;73.10;;;;;;5036086;28;20467;-69
2022/03/30 05:42:32;;;;;;;28.97;16.47;;;11.10;73.30;;;;;;5035346;28;20451;-69
2022/03/30 05:45:00;;;;;;;30.17;20.20;;;10.90;73.80;;;;;;5036582;28;20491;-69
2022/03/30 05:47:29;;;;;;;32.23;20.40;;;10.80;73.60;;;;;;5035725;28;20491;-69
2022/03/30 05:49:56;;;;;;;32.30;20.23;;;10.70;73.80;;;;;;5032092;28;20444;-68
2022/03/30 05:52:24;;;;;;;39.33;19.83;;;10.70;74.10;;;;;;5031943;28;20467;-70
2022/03/30 05:54:52;;;;;;;36.43;20.47;;;10.60;74.20;;;;;;5033971;28;20443;-70
2022/03/30 05:57:23;;;;;;;36.30;20.33;;;10.60;74.20;;;;;;5035335;28;20471;-69
2022/03/30 05:59:51;;;;;;;32.60;19.50;;;10.50;74.40;;;;;;5034903;28;20447;-70
2022/03/30 06:02:19;;;;;;;35.80;18.63;;;10.50;74.40;;;;;;5032495;28;20475;-70
2022/03/30 06:04:49;;;;;;;31.63;17.83;;;10.50;74.80;;;;;;5032742;28;20616;-71
2022/03/30 06:07:17;;;;;;;26.90;17.17;;;10.60;74.80;;;;;;5031211;28;20537;-69
2022/03/30 06:09:45;;;;;;;27.50;15.67;;;10.70;74.70;;;;;;5031811;28;20459;-69
2022/03/30 06:12:16;;;;;;;26.93;16.30;;;10.80;74.70;;;;;;5036803;28;20454;-70
2022/03/30 06:14:46;;;;;;;24.57;15.90;;;10.80;74.80;;;;;;5036017;28;20440;-69
2022/03/30 06:17:17;;;;;;;26.10;16.83;;;10.80;74.80;;;;;;5032106;28;20486;-70
2022/03/30 06:19:48;;;;;;;32.40;18.07;;;10.90;74.70;;;;;;5030651;28;20461;-69
2022/03/30 06:22:16;;;;;;;29.80;17.47;;;10.90;74.80;;;;;;5029920;28;20447;-71
2022/03/30 06:24:45;;;;;;;29.00;16.57;;;10.90;74.80;;;;;;5033289;28;20896;-70
2022/03/30 06:27:13;;;;;;;28.53;17.43;;;11.00;74.80;;;;;;5034128;28;20533;-70
2022/03/30 06:29:41;;;;;;;24.50;16.87;;;11.00;74.80;;;;;;5038942;28;20455;-69
2022/03/30 06:32:11;;;;;;;31.93;16.47;;;11.00;74.90;;;;;;5031542;28;20482;-70
2022/03/30 06:34:40;;;;;;;27.57;18.13;;;11.00;74.90;;;;;;5032840;28;20452;-70
2022/03/30 06:37:08;;;;;;;26.80;15.80;;;11.00;74.90;;;;;;5032149;28;20483;-70
2022/03/30 06:39:36;;;;;;;29.10;17.47;;;11.00;75.00;;;;;;5033660;28;20451;-70
2022/03/30 06:42:09;;;;;;;25.63;18.27;;;11.10;75.10;;;;;;5032078;28;20460;-70
2022/03/30 06:44:38;;;;;;;35.53;21.90;;;11.10;75.10;;;;;;5031558;28;20495;-70
2022/03/30 06:47:06;;;;;;;31.63;19.70;;;11.10;75.10;;;;;;5032978;28;20490;-70
2022/03/30 06:49:36;;;;;;;37.63;21.00;;;11.10;75.10;;;;;;5029680;28;20448;-70
2022/03/30 06:52:05;;;;;;;33.30;17.87;;;11.10;75.20;;;;;;5033605;28;20473;-70
2022/03/30 06:54:34;;;;;;;33.07;16.93;;;11.10;75.30;;;;;;5032362;28;21099;-70
2022/03/30 06:57:02;;;;;;;26.63;17.30;;;11.10;75.40;;;;;;5034237;28;20824;-70
2022/03/30 06:59:30;;;;;;;34.80;19.77;;;11.10;75.40;;;;;;5030349;28;20454;-69
2022/03/30 07:01:59;;;;;;;27.30;17.33;;;11.10;75.40;;;;;;5027464;28;20479;-70
2022/03/30 07:04:27;;;;;;;29.70;18.97;;;11.10;75.40;;;;;;5030289;28;21068;-70
2022/03/30 07:12:27;;;;;;;27.60;17.17;;;11.10;75.50;;;;;;5021628;28;20459;-70
2022/03/30 07:14:56;;;;;;;27.90;18.10;;;11.10;75.50;;;;;;5031009;28;20452;-70
2022/03/30 07:17:23;;;;;;;33.13;18.93;;;11.10;75.40;;;;;;5032489;28;20471;-69
2022/03/30 07:19:52;;;;;;;27.23;17.50;;;11.10;75.40;;;;;;5035717;28;20460;-70
2022/03/30 07:22:30;;;;;;;33.50;21.47;;;11.10;75.50;;;;;;5032311;28;20460;-70
2022/03/30 07:24:58;;;;;;;33.50;20.10;;;11.10;75.50;;;;;;5034362;28;20462;-70
2022/03/30 07:27:26;;;;;;;33.93;20.97;;;11.10;75.50;;;;;;5038293;28;20470;-69
2022/03/30 07:29:54;;;;;;;27.97;18.87;;;11.10;75.50;;;;;;5038967;28;20451;-69
2022/03/30 07:32:23;;;;;;;32.53;19.70;;;11.10;75.60;;;;;;5039363;28;20541;-70
2022/03/30 07:34:53;;;;;;;28.33;18.73;;;11.10;75.50;;;;;;5036076;28;20451;-71
2022/03/30 07:37:21;;;;;;;35.17;19.50;;;11.10;75.60;;;;;;5035748;28;20840;-70
2022/03/30 07:39:57;;;;;;;26.83;17.20;;;11.10;75.60;;;;;;5037160;28;20462;-70
2022/03/30 07:42:26;;;;;;;32.80;17.20;;;11.10;75.60;;;;;;5038840;28;20844;-70
2022/03/30 07:44:54;;;;;;;29.80;18.30;;;11.20;75.60;;;;;;5036874;28;20881;-70
2022/03/30 07:47:22;;;;;;;29.57;17.97;;;11.10;75.60;;;;;;5037285;28;20487;-70
2022/03/30 07:49:50;;;;;;;26.93;17.73;;;11.20;75.60;;;;;;5041034;28;20490;-70
2022/03/30 07:52:20;;;;;;;32.87;19.87;;;11.20;75.60;;;;;;5043045;28;20822;-70
2022/03/30 07:54:50;;;;;;;28.30;18.90;;;11.10;75.50;;;;;;5033283;28;20442;-70
2022/03/30 07:57:20;;;;;;;33.63;20.43;;;11.10;75.50;;;;;;5035364;28;20474;-70
2022/03/30 07:59:48;;;;;;;30.97;20.03;;;11.10;75.60;;;;;;5037221;28;20451;-70
2022/03/30 08:02:16;;;;;;;30.03;18.13;;;11.00;75.80;;;;;;5035782;28;20903;-70
2022/03/30 08:04:44;;;;;;;30.33;18.60;;;11.00;75.70;;;;;;5038406;28;20575;-70
2022/03/30 08:07:12;;;;;;;34.00;19.53;;;10.90;75.80;;;;;;5034805;28;21012;-70
2022/03/30 08:09:40;;;;;;;37.37;19.47;;;10.90;76.00;;;;;;5041092;28;20447;-70
2022/03/30 08:12:10;;;;;;;32.83;18.73;;;10.90;75.90;;;;;;5021260;28;20460;-70
2022/03/30 08:14:39;;;;;;;30.30;20.00;;;10.80;76.00;;;;;;5034682;28;20474;-70
2022/03/30 08:17:07;;;;;;;30.10;19.00;;;10.80;76.20;;;;;;5034662;28;20482;-71
2022/03/30 08:19:35;;;;;;;29.97;19.77;;;10.80;76.30;;;;;;5038475;28;20508;-70
2022/03/30 08:24:49;;;;;;;33.70;20.67;;;10.90;76.40;;;;;;5035255;28;21031;-70
2022/03/30 08:27:20;;;;;;;37.40;20.23;;;10.90;76.40;;;;;;5034206;28;20483;-70
2022/03/30 08:29:49;;;;;;;34.50;21.30;;;10.90;76.40;;;;;;5037434;28;21197;-70
2022/03/30 08:32:18;;;;;;;41.00;21.80;;;10.90;76.40;;;;;;5034158;28;20475;-70
2022/03/30 08:34:46;;;;;;;39.40;21.77;;;10.90;76.50;;;;;;5025078;28;20869;-69
2022/03/30 08:37:15;;;;;;;35.73;23.33;;;10.80;76.30;;;;;;5035497;28;20484;-69
2022/03/30 08:39:44;;;;;;;40.80;24.03;;;10.80;76.60;;;;;;5031170;28;20472;-70
2022/03/30 08:42:14;;;;;;;51.07;26.17;;;10.80;76.70;;;;;;5037810;28;20967;-70
2022/03/30 08:44:46;;;;;;;52.20;28.50;;;10.80;76.70;;;;;;5037543;28;20462;-70
2022/03/30 08:47:15;;;;;;;52.53;28.13;;;10.80;76.80;;;;;;5037847;28;20503;-70
2022/03/30 08:49:47;;;;;;;55.17;31.33;;;10.80;76.70;;;;;;5035628;28;20878;-70
2022/03/30 08:52:16;;;;;;;63.07;29.87;;;10.70;76.50;;;;;;5041242;28;20447;-70
2022/03/30 08:54:46;;;;;;;58.73;30.90;;;10.60;76.60;;;;;;5032622;28;21000;-70
2022/03/30 08:57:14;;;;;;;54.73;29.47;;;10.60;76.80;;;;;;5039356;28;20466;-70
2022/03/30 08:59:57;;;;;;;55.00;31.17;;;10.60;77.00;;;;;;5036755;28;20447;-70
2022/03/30 09:02:33;;;;;;;58.53;32.00;;;10.70;77.00;;;;;;5035644;28;20473;-70
2022/03/30 09:05:13;;;;;;;54.47;29.17;;;10.70;76.90;;;;;;5036143;28;20480;-70
2022/03/30 09:07:41;;;;;;;52.40;31.23;;;10.60;76.90;;;;;;5036632;28;20451;-70
2022/03/30 09:10:14;;;;;;;54.13;32.40;;;10.60;76.90;;;;;;5032979;28;20967;-70
2022/03/30 09:12:44;;;;;;;61.77;33.30;;;10.60;77.00;;;;;;5035995;28;20451;-70
2022/03/30 09:15:14;;;;;;;72.00;37.00;;;10.60;77.10;;;;;;5039054;28;20435;-70
2022/03/30 09:17:58;;;;;;;70.17;37.37;;;10.50;76.90;;;;;;5030824;28;20490;-67
2022/03/30 09:20:35;;;;;;;68.03;36.50;;;10.40;76.80;;;;;;5037630;28;20496;-69
2022/03/30 09:23:04;;;;;;;69.87;39.30;;;10.40;76.90;;;;;;5034127;28;20448;-69
2022/03/30 09:25:49;;;;;;;66.67;38.73;;;10.30;77.50;;;;;;5039172;28;20518;-69
2022/03/30 09:28:20;;;;;;;79.40;40.80;;;10.30;77.40;;;;;;5034299;28;20475;-69
2022/03/30 09:30:51;;;;;;;82.73;43.13;;;10.30;77.50;;;;;;5037205;28;21045;-69
2022/03/30 09:33:20;;;;;;;76.00;40.80;;;10.30;77.70;;;;;;5035870;28;20447;-69
2022/03/30 09:35:49;;;;;;;87.30;42.70;;;10.20;77.50;;;;;;5036655;28;20471;-68
2022/03/30 09:38:20;;;;;;;94.27;44.23;;;10.10;77.20;;;;;;5031817;28;20552;-69
2022/03/30 09:40:53;;;;;;;84.27;45.20;;;10.00;77.40;;;;;;5031969;28;20518;-69
2022/03/30 09:43:23;;;;;;;84.83;42.80;;;9.90;78.10;;;;;;5031924;28;20448;-69
2022/03/30 09:46:05;;;;;;;91.07;42.70;;;9.90;78.00;;;;;;5034210;28;20502;-69
2022/03/30 09:48:38;;;;;;;93.63;45.23;;;9.90;78.00;;;;;;5029076;28;20517;-69
2022/03/30 09:51:08;;;;;;;85.47;44.47;;;9.80;78.00;;;;;;5032863;28;20451;-69
2022/03/30 09:53:37;;;;;;;91.33;44.90;;;9.80;78.10;;;;;;5031045;28;20460;-68
2022/03/30 09:56:08;;;;;;;83.17;43.23;;;9.90;78.30;;;;;;5035692;28;20490;-69
2022/03/30 09:58:38;;;;;;;85.87;42.87;;;9.90;78.50;;;;;;5033297;28;20467;-68
2022/03/30 10:01:19;;;;;;;93.53;46.57;;;9.90;78.30;;;;;;5033440;28;20847;-68
2022/03/30 10:03:50;;;;;;;90.20;45.70;;;9.90;78.40;;;;;;5036053;28;20907;-69
2022/03/30 10:06:21;;;;;;;87.07;45.80;;;9.90;78.30;;;;;;5036424;28;20483;-68
2022/03/30 10:08:51;;;;;;;92.47;44.60;;;9.90;78.30;;;;;;5033831;28;21252;-68
2022/03/30 10:11:21;;;;;;;94.47;46.27;;;9.90;78.50;;;;;;5031788;28;21539;-70
2022/03/30 10:13:50;;;;;;;95.97;46.00;;;9.80;78.50;;;;;;5032139;28;21244;-69
2022/03/30 10:16:41;;;;;;;89.50;45.53;;;9.90;78.60;;;;;;5028882;28;20526;-67
2022/03/30 10:19:10;;;;;;;85.37;44.87;;;9.90;78.80;;;;;;5037792;28;20459;-69
2022/03/30 10:21:48;;;;;;;102.20;48.43;;;10.00;78.80;;;;;;5040549;28;20843;-71
2022/03/30 10:24:47;;;;;;;90.40;44.70;;;10.10;78.80;;;;;;5037569;28;20957;-71
2022/03/30 10:27:26;;;;;;;88.83;44.30;;;10.10;78.70;;;;;;5036029;28;21220;-69
2022/03/30 10:29:56;;;;;;;84.97;43.73;;;10.10;78.80;;;;;;5037376;28;20530;-70
2022/03/30 10:32:27;;;;;;;84.07;45.17;;;10.00;79.20;;;;;;5036135;28;20486;-70
2022/03/30 10:35:06;;;;;;;87.30;45.73;;;10.10;78.80;;;;;;5029757;28;20459;-69
2022/03/30 10:37:36;;;;;;;86.13;44.70;;;10.10;78.90;;;;;;5035052;28;20466;-69
2022/03/30 10:40:18;;;;;;;71.17;40.80;;;10.10;79.20;;;;;;5034978;28;20567;-69
2022/03/30 10:43:05;;;;;;;77.27;41.13;;;10.10;79.10;;;;;;5040160;28;20469;-70
2022/03/30 10:45:43;;;;;;;85.13;42.30;;;10.10;79.10;;;;;;5032979;28;20486;-71
2022/03/30 10:48:16;;;;;;;71.23;41.53;;;10.20;78.90;;;;;;5031412;28;20479;-71
2022/03/30 10:50:47;;;;;;;71.03;40.33;;;10.20;78.90;;;;;;5029973;28;21008;-69
2022/03/30 10:53:39;;;;;;;75.80;43.27;;;10.20;79.20;;;;;;5032591;28;20454;-71
2022/03/30 10:56:30;;;;;;;74.77;41.80;;;10.20;78.80;;;;;;5035546;28;20566;-68
2022/03/30 10:59:25;;;;;;;70.97;40.50;;;10.20;78.90;;;;;;5034083;28;20452;-70
2022/03/30 11:02:13;;;;;;;77.93;40.27;;;10.10;78.90;;;;;;5040460;28;20475;-70
2022/03/30 11:04:46;;;;;;;84.90;42.37;;;10.10;79.00;;;;;;5040696;28;20568;-70
2022/03/30 11:07:35;;;;;;;75.17;40.00;;;10.10;79.20;;;;;;5040910;28;21024;-69
2022/03/30 11:10:23;;;;;;;74.73;40.33;;;10.20;79.10;;;;;;5041679;28;20479;-69
2022/03/30 11:13:11;;;;;;;80.73;41.10;;;10.30;79.10;;;;;;5040184;28;20853;-68
2022/03/30 11:16:11;;;;;;;76.57;39.73;;;10.40;79.20;;;;;;5037333;28;20480;-69
2022/03/30 11:18:55;;;;;;;70.63;38.87;;;10.40;79.20;;;;;;5039026;28;20451;-69
2022/03/30 11:21:26;;;;;;;78.83;40.80;;;10.50;79.20;;;;;;5038903;28;20452;-70
2022/03/30 11:24:11;;;;;;;77.97;40.00;;;10.50;79.00;;;;;;5040851;28;20455;-70
2022/03/30 11:27:17;;;;;;;81.77;44.63;;;10.50;78.70;;;;;;5041230;28;20482;-69
2022/03/30 11:29:48;;;;;;;88.07;43.43;;;10.40;78.90;;;;;;5038520;28;20450;-70
2022/03/30 11:32:37;;;;;;;83.07;42.33;;;10.30;78.80;;;;;;5042616;28;20554;-70
2022/03/30 11:35:07;;;;;;;85.47;42.77;;;10.30;79.10;;;;;;5038196;28;20444;-69
2022/03/30 11:37:43;;;;;;;86.13;42.30;;;10.30;79.00;;;;;;5031080;28;21367;-69
2022/03/30 11:40:13;;;;;;;85.63;42.03;;;10.30;79.20;;;;;;5036553;28;20967;-69
2022/03/30 11:42:49;;;;;;;80.10;42.73;;;10.40;79.20;;;;;;5038427;28;20455;-69
2022/03/30 11:45:20;;;;;;;73.53;38.70;;;10.40;79.00;;;;;;5040475;28;20462;-69
2022/03/30 11:47:56;;;;;;;78.23;39.93;;;10.40;78.90;;;;;;5039408;28;20577;-69
2022/03/30 11:50:27;;;;;;;67.90;39.63;;;10.30;79.10;;;;;;5038965;28;20467;-69
2022/03/30 11:52:59;;;;;;;79.10;39.43;;;10.30;79.00;;;;;;5035418;28;20449;-69
2022/03/30 11:55:28;;;;;;;82.70;44.63;;;10.30;79.30;;;;;;5039584;28;20450;-69
2022/03/30 11:57:58;;;;;;;80.27;42.63;;;10.30;79.20;;;;;;5039356;28;20451;-70
2022/03/30 12:00:28;;;;;;;69.63;39.43;;;10.30;79.30;;;;;;5039271;28;21206;-70
2022/03/30 12:02:57;;;;;;;75.13;39.43;;;10.40;79.40;;;;;;5039942;28;20490;-70
2022/03/30 12:05:26;;;;;;;63.70;38.30;;;10.40;79.40;;;;;;5037889;28;20448;-69
2022/03/30 12:07:57;;;;;;;70.97;35.83;;;10.30;79.50;;;;;;5038898;28;20489;-69
2022/03/30 12:10:30;;;;;;;64.83;36.90;;;10.30;79.30;;;;;;5037967;28;20445;-69
2022/03/30 12:13:00;;;;;;;77.97;38.10;;;10.30;79.70;;;;;;5038072;28;20459;-70
2022/03/30 12:15:28;;;;;;;73.00;38.27;;;10.30;79.70;;;;;;5039045;28;20465;-70
2022/03/30 12:17:58;;;;;;;65.27;38.03;;;10.40;79.30;;;;;;5037387;28;20449;-70
2022/03/30 12:20:29;;;;;;;70.50;38.47;;;10.40;79.60;;;;;;5033119;28;20456;-69
2022/03/30 12:23:00;;;;;;;67.27;37.40;;;10.40;79.60;;;;;;5035224;28;20448;-70
2022/03/30 12:25:31;;;;;;;62.03;36.27;;;10.50;79.80;;;;;;5037353;28;20864;-70
2022/03/30 12:27:59;;;;;;;73.03;42.80;;;10.50;79.70;;;;;;5035602;28;20699;-69
2022/03/30 12:30:30;;;;;;;54.40;32.30;;;10.60;79.40;;;;;;5034681;28;20936;-70
2022/03/30 12:32:58;;;;;;;52.60;31.17;;;10.60;79.50;;;;;;5035575;28;20451;-69
2022/03/30 12:35:31;;;;;;;56.83;31.50;;;10.60;79.40;;;;;;5038008;28;20699;-70
2022/03/30 12:38:09;;;;;;;58.47;36.13;;;10.50;79.40;;;;;;5038504;28;20461;-69
2022/03/30 12:40:39;;;;;;;50.50;31.60;;;10.50;79.50;;;;;;5035592;28;20474;-70
2022/03/30 12:43:08;;;;;;;51.73;30.90;;;10.50;79.30;;;;;;5033788;28;21428;-70
2022/03/30 12:45:54;;;;;;;50.77;29.43;;;10.50;79.70;;;;;;5034315;28;20487;-69
2022/03/30 12:48:27;;;;;;;47.77;28.30;;;10.50;79.50;;;;;;5035773;28;20582;-70
2022/03/30 12:50:59;;;;;;;41.50;24.47;;;10.40;79.50;;;;;;5036566;28;20516;-70
2022/03/30 12:53:33;;;;;;;42.50;27.27;;;10.30;79.20;;;;;;5035004;28;20526;-69
2022/03/30 12:56:13;;;;;;;46.10;26.43;;;10.30;79.60;;;;;;5036512;28;20485;-72